Albert Lea, Minnesota
Current Conditions -  °F | °C
As of 6:36 PM on Monday 24 Nov 2014 (Local Time) from KAUM Reporting Station
Light Snow Light Snow  
Wind Chill: -5°   Ceiling: 900
Heat Index: 12°   Visibility: 1.2mi
Dew Point: 10°   Wind: 17mph
Humidity: 92%   Direction: 300°WNW
Pressure: 29.73"   Gusts: 29mph
Location:  43.65°N, 93.37°W
Report Text: KAUM 250036Z AUTO 30015G25KT 1 1/4SM -SN BKN009 BKN014 OVC030 M11/M12 A2973 RMK AO2
Loading
Personal Weather Stations






























Interactive Weather Map New forecast layout! Learn more

10-Day Weather Forecast

Advertisements
Track Severe Weather on mobile